Time;durP1;ratioP1;P1;durP2;ratioP2;P2;SDS_P1;SDS_P2;PMS_P1;PMS_P2;Temp;Humidity;BMP_temperature;BMP_pressure;BME280_temperature;BME280_humidity;BME280_pressure;Samples;Min_cycle;Max_cycle;Signal;HPM_P1;HPM_P2
2023/04/23 00:00:29;;;;;;;4.90;4.00;;;;;;;15.57;65.27;96563.47;4940670;28;20379;-75
2023/04/23 00:02:56;;;;;;;5.55;4.28;;;;;;;15.52;65.05;96541.50;4921483;28;20571;-76
2023/04/23 00:05:26;;;;;;;4.95;4.47;;;;;;;15.54;65.56;96538.56;4952069;28;20478;-76
2023/04/23 00:07:53;;;;;;;5.13;4.63;;;;;;;15.64;65.07;96551.50;4940173;28;20157;-75
2023/04/23 00:10:18;;;;;;;5.43;4.93;;;;;;;15.67;64.96;96558.00;4946218;28;20188;-75
2023/04/23 00:12:44;;;;;;;5.28;4.78;;;;;;;15.75;64.63;96546.88;4932102;28;20363;-75
2023/04/23 00:15:11;;;;;;;5.43;4.32;;;;;;;15.66;64.80;96545.94;4945760;28;20189;-75
2023/04/23 00:17:36;;;;;;;5.45;4.95;;;;;;;15.69;64.49;96548.00;4943479;28;20310;-75
2023/04/23 00:20:02;;;;;;;6.20;5.40;;;;;;;15.66;64.65;96538.06;4955345;28;20355;-76
2023/04/23 00:22:27;;;;;;;6.10;5.50;;;;;;;15.60;65.03;96542.66;4930809;28;20576;-75
2023/04/23 00:24:53;;;;;;;7.07;4.53;;;;;;;15.63;65.17;96543.94;4947935;28;20218;-76
2023/04/23 00:27:20;;;;;;;5.55;4.95;;;;;;;15.64;65.09;96550.72;4931197;28;20197;-76
2023/04/23 00:29:45;;;;;;;5.90;5.30;;;;;;;15.60;64.69;96541.88;4929723;28;20169;-75
2023/04/23 00:32:11;;;;;;;6.70;6.00;;;;;;;15.61;65.00;96540.81;4928737;28;20388;-75
2023/04/23 00:34:36;;;;;;;6.28;4.95;;;;;;;15.62;64.91;96545.00;4959278;28;20389;-76
2023/04/23 00:37:05;;;;;;;5.95;5.32;;;;;;;15.65;65.00;96549.66;4928419;28;20203;-75
2023/04/23 00:39:31;;;;;;;6.13;5.53;;;;;;;15.62;65.02;96550.25;4910839;28;20184;-75
2023/04/23 00:41:57;;;;;;;5.95;4.93;;;;;;;15.62;64.94;96552.88;4932618;28;20219;-75
2023/04/23 00:44:23;;;;;;;6.20;5.20;;;;;;;15.61;65.56;96556.53;4962687;28;20040;-76
2023/04/23 00:46:49;;;;;;;7.07;5.82;;;;;;;15.52;65.29;96559.06;4925288;28;20526;-75
2023/04/23 00:49:14;;;;;;;6.38;5.38;;;;;;;15.55;64.95;96563.75;4912201;28;20200;-76
2023/04/23 00:51:40;;;;;;;6.22;5.63;;;;;;;15.50;65.41;96569.84;4928541;28;20279;-75
2023/04/23 00:54:06;;;;;;;6.82;5.55;;;;;;;15.54;65.13;96567.44;4929645;28;20475;-76
2023/04/23 00:56:32;;;;;;;7.05;5.88;;;;;;;15.56;65.30;96557.44;4925036;28;20556;-76
2023/04/23 00:58:57;;;;;;;6.70;5.68;;;;;;;15.54;65.41;96568.22;4929080;28;20261;-75
2023/04/23 01:01:23;;;;;;;6.85;6.07;;;;;;;15.46;65.60;96558.41;4929355;28;20226;-75
2023/04/23 01:03:51;;;;;;;6.38;5.78;;;;;;;15.55;65.13;96566.38;4952993;23;20246;-83
2023/04/23 01:06:17;;;;;;;6.43;5.80;;;;;;;15.45;64.89;96566.56;4951508;28;20197;-84
2023/04/23 01:08:43;;;;;;;6.97;5.55;;;;;;;15.37;65.02;96565.41;4949617;28;20078;-84
2023/04/23 01:11:08;;;;;;;6.75;5.63;;;;;;;15.35;65.52;96565.69;4974717;28;20186;-83
2023/04/23 01:13:34;;;;;;;6.07;5.45;;;;;;;15.50;64.63;96563.84;4943940;28;20213;-83
2023/04/23 01:16:00;;;;;;;6.75;5.95;;;;;;;15.39;65.26;96562.47;4946831;28;20214;-83
2023/04/23 01:18:26;;;;;;;5.45;4.93;;;;;;;15.30;65.50;96564.97;4955558;28;20474;-83
2023/04/23 01:20:52;;;;;;;6.10;5.50;;;;;;;15.20;65.66;96565.94;4966110;28;20243;-83
2023/04/23 01:23:18;;;;;;;5.45;4.95;;;;;;;15.24;65.49;96560.91;4953524;28;20167;-84
2023/04/23 01:25:43;;;;;;;5.78;5.18;;;;;;;15.19;65.59;96558.38;4941121;28;20626;-84
2023/04/23 01:28:09;;;;;;;5.57;5.07;;;;;;;15.16;65.49;96555.25;4932963;28;20260;-83
2023/04/23 01:30:38;;;;;;;5.78;5.22;;;;;;;15.07;66.06;96564.84;4932624;28;20632;-83
2023/04/23 01:33:05;;;;;;;5.70;5.20;;;;;;;15.08;65.82;96558.53;4948523;28;20160;-83
2023/04/23 01:35:30;;;;;;;5.07;4.68;;;;;;;15.08;65.91;96569.03;4948088;28;20187;-83
2023/04/23 01:37:58;;;;;;;5.28;4.75;;;;;;;15.03;66.28;96558.63;4960529;28;20199;-84
2023/04/23 01:40:23;;;;;;;6.63;4.82;;;;;;;15.11;65.68;96565.84;4938184;28;20525;-83
2023/04/23 01:42:49;;;;;;;5.22;4.72;;;;;;;14.94;65.82;96560.34;4964810;28;20156;-83
2023/04/23 01:45:14;;;;;;;5.60;4.97;;;;;;;15.07;65.96;96564.06;4948157;28;20526;-83
2023/04/23 01:47:40;;;;;;;5.15;4.68;;;;;;;15.19;65.55;96574.88;4948406;28;20148;-84
2023/04/23 01:50:07;;;;;;;4.72;4.18;;;;;;;15.13;65.72;96576.00;4966780;28;20267;-83
2023/04/23 01:52:32;;;;;;;5.10;4.55;;;;;;;15.00;66.00;96577.53;4951975;28;20160;-83
2023/04/23 01:54:58;;;;;;;5.28;4.78;;;;;;;15.05;65.78;96576.69;4925573;28;20198;-83
2023/04/23 01:57:25;;;;;;;5.13;4.55;;;;;;;15.08;65.67;96579.53;4960376;28;20622;-84
2023/04/23 01:59:51;;;;;;;5.90;4.10;;;;;;;15.10;65.55;96574.75;4932364;28;20198;-84
2023/04/23 02:02:16;;;;;;;4.88;4.35;;;;;;;15.10;65.68;96582.63;4960357;28;20682;-83
2023/04/23 02:04:43;;;;;;;5.38;4.15;;;;;;;15.19;65.41;96576.72;4962189;28;20202;-83
2023/04/23 02:07:09;;;;;;;4.63;4.22;;;;;;;15.08;65.88;96578.72;4946812;28;20198;-84
2023/04/23 02:09:34;;;;;;;4.65;4.20;;;;;;;15.09;65.45;96572.41;4961874;28;20626;-84
2023/04/23 02:12:00;;;;;;;5.53;5.00;;;;;;;15.04;65.26;96572.50;4946495;28;20283;-84
2023/04/23 02:14:26;;;;;;;4.75;4.25;;;;;;;14.96;65.58;96566.09;4938035;28;20212;-84
2023/04/23 02:16:51;;;;;;;4.68;3.92;;;;;;;15.02;65.46;96578.03;4947129;28;20801;-84
2023/04/23 02:19:16;;;;;;;4.68;4.13;;;;;;;15.07;65.19;96571.94;4945526;28;20163;-83
2023/04/23 02:21:42;;;;;;;4.80;4.13;;;;;;;15.04;65.40;96572.50;4952634;28;20184;-84
2023/04/23 02:24:07;;;;;;;3.60;3.30;;;;;;;14.97;65.69;96573.63;4931504;28;20202;-84
2023/04/23 02:26:33;;;;;;;5.70;4.40;;;;;;;15.01;65.21;96579.13;4948759;28;20282;-83
2023/04/23 02:28:59;;;;;;;4.03;3.63;;;;;;;15.07;65.03;96580.56;4947906;28;20168;-84
2023/04/23 02:31:24;;;;;;;4.30;3.90;;;;;;;15.04;65.28;96575.91;4935082;28;20259;-83
2023/04/23 02:33:50;;;;;;;4.35;3.92;;;;;;;15.03;65.27;96584.03;4958102;28;20637;-84
2023/04/23 02:36:16;;;;;;;4.40;4.03;;;;;;;15.02;65.21;96588.53;4931426;28;20279;-84
2023/04/23 02:38:43;;;;;;;5.03;4.00;;;;;;;14.98;65.29;96579.69;4947512;28;20546;-84
2023/04/23 02:41:09;;;;;;;4.47;4.07;;;;;;;14.95;65.64;96585.50;4929522;28;20156;-83
2023/04/23 02:43:35;;;;;;;4.30;3.90;;;;;;;14.88;65.82;96577.22;4940604;28;20237;-84
2023/04/23 02:46:07;;;;;;;4.90;4.38;;;;;;;14.96;65.43;96581.81;4931006;28;20722;-84
2023/04/23 02:48:35;;;;;;;5.38;4.28;;;;;;;14.97;65.39;96562.38;4959064;28;20245;-83
2023/04/23 02:51:02;;;;;;;4.30;3.85;;;;;;;14.96;65.54;96579.19;4945503;28;20152;-83
2023/04/23 02:53:27;;;;;;;4.50;4.07;;;;;;;15.00;65.00;96577.53;4961270;28;20190;-82
2023/04/23 02:55:52;;;;;;;4.97;4.47;;;;;;;14.76;65.51;96548.84;4948852;28;20274;-83
2023/04/23 02:58:18;;;;;;;4.30;3.90;;;;;;;14.95;64.92;96564.53;4931520;28;20636;-84
2023/04/23 03:00:43;;;;;;;4.75;3.85;;;;;;;14.87;65.47;96575.66;4946853;28;20282;-83
2023/04/23 03:03:09;;;;;;;4.47;3.85;;;;;;;14.88;65.37;96564.88;4943555;28;20082;-84
2023/04/23 03:05:34;;;;;;;4.47;4.07;;;;;;;14.92;65.27;96570.34;4945787;28;20241;-84
2023/04/23 03:07:59;;;;;;;4.60;3.83;;;;;;;14.85;65.42;96569.94;4928045;28;20622;-83
2023/04/23 03:10:25;;;;;;;4.78;3.83;;;;;;;14.96;65.38;96574.72;4947356;28;20288;-83
2023/04/23 03:12:50;;;;;;;4.22;3.83;;;;;;;14.85;65.23;96570.69;4942752;28;20194;-84
2023/04/23 03:15:16;;;;;;;3.75;3.45;;;;;;;14.91;65.31;96574.03;4945487;28;20290;-84
2023/04/23 03:17:42;;;;;;;4.63;4.07;;;;;;;14.87;65.32;96567.78;4933304;28;20164;-83
2023/04/23 03:20:10;;;;;;;3.35;3.05;;;;;;;14.96;65.24;96581.81;4947994;28;20646;-83
2023/04/23 03:22:35;;;;;;;4.13;3.72;;;;;;;14.81;65.23;96563.72;4957004;28;20196;-83
2023/04/23 03:25:01;;;;;;;4.20;3.80;;;;;;;14.76;65.17;96561.94;4928222;28;20636;-83
2023/04/23 03:27:26;;;;;;;4.70;3.42;;;;;;;14.87;64.86;96570.41;4944359;28;20087;-83
2023/04/23 03:29:51;;;;;;;4.35;3.75;;;;;;;14.84;65.21;96584.09;4950477;28;20691;-83
2023/04/23 03:32:17;;;;;;;4.43;4.03;;;;;;;14.84;65.38;96578.84;4946209;28;20722;-83
2023/04/23 03:34:43;;;;;;;4.47;3.60;;;;;;;14.85;65.35;96590.91;4930093;28;20238;-83
2023/04/23 03:37:08;;;;;;;4.10;3.70;;;;;;;14.82;65.52;96591.47;4974167;28;20257;-84
2023/04/23 03:39:34;;;;;;;3.83;3.53;;;;;;;14.89;65.21;96587.44;4950087;28;20244;-83
2023/04/23 03:42:00;;;;;;;4.40;4.00;;;;;;;14.83;65.14;96579.94;4951255;28;20159;-84
2023/04/23 03:44:26;;;;;;;3.75;3.10;;;;;;;14.84;65.36;96591.94;4940451;28;20308;-83
2023/04/23 03:46:51;;;;;;;3.88;3.53;;;;;;;14.84;65.08;96584.09;4947175;28;20600;-83
2023/04/23 03:49:17;;;;;;;4.55;3.70;;;;;;;14.79;65.85;96585.72;4950660;28;20323;-82
2023/04/23 03:51:42;;;;;;;4.55;3.40;;;;;;;14.88;65.19;96585.09;4950436;28;20190;-83
2023/04/23 03:54:07;;;;;;;4.05;3.65;;;;;;;14.71;65.19;96554.94;4963902;28;20129;-83
2023/04/23 03:56:36;;;;;;;3.58;3.28;;;;;;;14.95;65.09;96583.66;4949270;28;20572;-83
2023/04/23 03:59:01;;;;;;;5.03;3.63;;;;;;;14.85;65.28;96581.19;4919800;28;20279;-84
2023/04/23 04:01:26;;;;;;;3.80;3.50;;;;;;;14.87;65.10;96586.13;4966058;28;20361;-83
2023/04/23 04:03:52;;;;;;;3.75;3.33;;;;;;;14.84;65.20;96590.13;4942595;28;20345;-83
2023/04/23 04:06:17;;;;;;;4.07;3.78;;;;;;;14.89;65.26;96587.44;4948036;28;20702;-83
2023/04/23 04:08:42;;;;;;;4.07;3.35;;;;;;;14.98;64.62;96585.69;4944364;28;20101;-83
2023/04/23 04:11:08;;;;;;;4.38;3.45;;;;;;;14.93;64.94;96587.63;4933705;28;20289;-83
2023/04/23 04:13:33;;;;;;;4.13;3.53;;;;;;;14.84;65.18;96587.50;4950182;28;20152;-83
2023/04/23 04:15:59;;;;;;;4.45;3.80;;;;;;;14.84;65.12;96589.31;4958746;28;20301;-83
2023/04/23 04:18:24;;;;;;;4.18;3.78;;;;;;;14.91;64.83;96592.38;4957758;28;20287;-83
2023/04/23 04:20:51;;;;;;;3.90;3.10;;;;;;;14.90;64.83;96598.69;4923120;28;20299;-83
2023/04/23 04:23:16;;;;;;;5.32;3.78;;;;;;;14.78;65.24;96586.78;4934759;28;20687;-83
2023/04/23 04:25:41;;;;;;;4.53;3.78;;;;;;;14.79;65.23;96590.97;4947608;28;20278;-84
2023/04/23 04:28:08;;;;;;;4.55;3.83;;;;;;;14.78;65.26;96589.41;4949794;28;20280;-83
2023/04/23 04:30:34;;;;;;;4.00;3.60;;;;;;;14.77;65.38;96587.06;4926971;28;20160;-84
2023/04/23 04:33:00;;;;;;;4.78;4.00;;;;;;;14.87;65.06;96591.38;4958723;28;20204;-83
2023/04/23 04:35:25;;;;;;;5.03;3.95;;;;;;;14.91;65.02;96598.41;4949610;28;20347;-83
2023/04/23 04:37:52;;;;;;;5.30;3.50;;;;;;;14.87;65.19;96589.53;4948295;28;20695;-83
2023/04/23 04:40:18;;;;;;;4.35;3.00;;;;;;;14.83;65.21;96585.16;4931799;28;20275;-83
2023/04/23 04:42:45;;;;;;;4.00;3.60;;;;;;;14.84;65.27;96584.09;4958337;28;20268;-83
2023/04/23 04:45:11;;;;;;;5.07;3.90;;;;;;;14.88;65.40;96590.34;4966314;28;20202;-83
2023/04/23 04:47:36;;;;;;;4.50;3.80;;;;;;;14.82;65.48;96588.84;4949605;28;20585;-82
2023/04/23 04:50:03;;;;;;;5.38;3.75;;;;;;;14.84;65.26;96579.66;4962913;28;20203;-83
2023/04/23 04:52:28;;;;;;;3.95;3.20;;;;;;;14.79;65.39;96574.47;4940104;28;20255;-83
2023/04/23 04:54:53;;;;;;;4.93;3.88;;;;;;;14.85;65.41;96575.16;4954109;28;20688;-83
2023/04/23 04:57:21;;;;;;;3.78;3.38;;;;;;;14.92;65.24;96583.44;4946729;28;20137;-84
2023/04/23 04:59:47;;;;;;;4.30;3.80;;;;;;;14.88;65.64;96570.13;4954951;28;20644;-83
2023/04/23 05:02:12;;;;;;;5.20;4.32;;;;;;;14.85;65.67;96560.22;4947766;28;20171;-83
2023/04/23 05:04:38;;;;;;;4.90;3.92;;;;;;;14.65;65.69;96561.31;4944973;28;20289;-83
2023/04/23 05:07:03;;;;;;;4.13;3.72;;;;;;;14.72;65.94;96572.22;4950805;28;20200;-83
2023/04/23 05:09:29;;;;;;;4.72;3.60;;;;;;;14.89;65.49;96576.16;4945755;28;20162;-84
2023/04/23 05:11:54;;;;;;;5.00;4.07;;;;;;;14.94;65.20;96562.97;4948759;28;20619;-83
2023/04/23 05:14:20;;;;;;;3.88;3.20;;;;;;;15.05;65.84;96563.59;4948045;28;21413;-83
2023/04/23 05:16:45;;;;;;;4.50;4.00;;;;;;;15.09;65.09;96569.78;4965066;28;20259;-83
2023/04/23 05:19:10;;;;;;;6.32;3.90;;;;;;;15.08;65.32;96579.53;4948325;28;20207;-83
2023/04/23 05:21:36;;;;;;;4.55;3.85;;;;;;;15.09;65.22;96575.81;4967479;28;20140;-83
2023/04/23 05:24:01;;;;;;;4.15;3.70;;;;;;;15.15;64.61;96579.16;4957872;28;20183;-83
2023/04/23 05:26:26;;;;;;;4.82;4.03;;;;;;;15.08;64.95;96574.28;4928023;28;20171;-83
2023/04/23 05:28:52;;;;;;;4.00;3.60;;;;;;;15.04;65.11;96580.38;4958069;28;20105;-83
2023/04/23 05:31:17;;;;;;;4.78;3.92;;;;;;;15.12;64.62;96575.25;4961748;28;20613;-83
2023/04/23 05:33:43;;;;;;;5.22;4.32;;;;;;;15.09;65.05;96580.28;4960837;28;20186;-83
2023/04/23 05:36:09;;;;;;;6.15;4.00;;;;;;;15.13;65.09;96578.63;4940674;28;20277;-83
2023/04/23 05:38:35;;;;;;;5.13;4.10;;;;;;;15.19;64.73;96574.09;4927016;28;20690;-83
2023/04/23 05:41:00;;;;;;;6.18;4.82;;;;;;;15.02;64.69;96572.03;4927503;28;20651;-83
2023/04/23 05:43:26;;;;;;;4.95;4.22;;;;;;;15.06;65.11;96578.22;4959985;28;20249;-82
2023/04/23 05:45:51;;;;;;;4.85;4.30;;;;;;;15.16;64.61;96580.69;4932606;28;20484;-82
2023/04/23 05:48:17;;;;;;;4.10;3.70;;;;;;;15.10;64.73;96571.38;4956122;28;20296;-82
2023/04/23 05:50:42;;;;;;;4.38;3.97;;;;;;;15.15;65.26;96597.50;4922847;28;20652;-82
2023/04/23 05:53:07;;;;;;;5.57;3.95;;;;;;;15.21;64.96;96590.31;4954697;28;20436;-82
2023/04/23 05:55:33;;;;;;;5.97;4.55;;;;;;;15.07;65.44;96572.72;4948521;28;20204;-81
2023/04/23 05:57:58;;;;;;;4.57;3.90;;;;;;;15.21;65.09;96583.22;4946349;28;20186;-82
2023/04/23 06:00:24;;;;;;;4.55;4.13;;;;;;;15.25;65.20;96588.66;4943763;28;20269;-82
2023/04/23 06:02:49;;;;;;;6.22;4.65;;;;;;;15.36;64.68;96584.81;4932061;28;20206;-82
2023/04/23 06:05:14;;;;;;;5.57;4.18;;;;;;;15.31;64.72;96577.03;4947232;28;20207;-82
2023/04/23 06:07:40;;;;;;;5.32;4.38;;;;;;;15.29;64.75;96566.06;4943478;28;20501;-82
2023/04/23 06:10:06;;;;;;;4.47;4.07;;;;;;;15.31;65.05;96575.19;4933347;28;20687;-82
2023/04/23 06:12:32;;;;;;;5.35;4.38;;;;;;;15.34;64.69;96577.22;4949845;28;20249;-82
2023/04/23 06:14:57;;;;;;;5.72;4.82;;;;;;;15.40;64.70;96585.78;4943286;28;20304;-82
2023/04/23 06:17:23;;;;;;;5.15;4.05;;;;;;;15.34;64.92;96573.84;4932296;28;20273;-82
2023/04/23 06:19:48;;;;;;;4.78;4.25;;;;;;;15.46;64.66;96578.63;4930027;28;20187;-82
2023/04/23 06:22:13;;;;;;;7.20;4.00;;;;;;;15.36;64.99;96579.56;4930698;28;20547;-82
2023/04/23 06:24:39;;;;;;;6.07;4.47;;;;;;;15.42;64.71;96583.66;4956552;28;20202;-81
2023/04/23 06:27:04;;;;;;;4.82;4.32;;;;;;;15.40;65.22;96583.16;4932929;28;20628;-82
2023/04/23 06:29:29;;;;;;;5.78;4.80;;;;;;;15.41;64.96;96576.09;4949575;28;20733;-82
2023/04/23 06:31:56;;;;;;;5.68;5.03;;;;;;;15.38;65.57;96580.06;4948223;28;20253;-82
2023/04/23 06:34:21;;;;;;;5.90;4.47;;;;;;;15.41;64.87;96578.72;4961831;28;20271;-82
2023/04/23 06:36:47;;;;;;;4.93;4.07;;;;;;;15.59;64.98;96577.06;4928677;28;20274;-82
2023/04/23 06:39:12;;;;;;;5.03;4.53;;;;;;;15.77;64.61;96572.81;4956358;28;20187;-82
2023/04/23 06:41:37;;;;;;;6.68;4.93;;;;;;;15.82;64.25;96576.13;4915393;28;20299;-82
2023/04/23 06:44:03;;;;;;;4.78;4.22;;;;;;;15.92;63.81;96564.66;4950659;28;20187;-82
2023/04/23 06:46:28;;;;;;;4.57;4.18;;;;;;;15.48;64.70;96569.38;4947490;28;20262;-82
2023/04/23 06:48:53;;;;;;;5.07;4.55;;;;;;;15.64;65.11;96561.97;4932595;28;20229;-81
2023/04/23 06:51:19;;;;;;;6.22;4.53;;;;;;;15.66;64.63;96564.31;4947968;28;20286;-81
2023/04/23 06:53:45;;;;;;;4.93;4.20;;;;;;;15.83;63.95;96561.91;4941847;28;20699;-81
2023/04/23 06:56:11;;;;;;;7.55;5.10;;;;;;;15.70;64.60;96563.44;4913942;28;20192;-81
2023/04/23 06:58:36;;;;;;;4.90;4.10;;;;;;;15.80;64.48;96561.72;4931504;28;20226;-81
2023/04/23 07:01:06;;;;;;;7.50;4.80;;;;;;;15.79;64.32;96557.56;4948757;28;20294;-81
2023/04/23 07:03:31;;;;;;;6.28;4.30;;;;;;;15.77;63.81;96551.81;4960858;28;20277;-81
2023/04/23 07:05:57;;;;;;;5.78;4.47;;;;;;;15.81;63.10;96550.16;4948775;28;20612;-81
2023/04/23 07:08:22;;;;;;;5.05;4.55;;;;;;;15.83;62.89;96559.28;4937988;28;20204;-82
2023/04/23 07:10:48;;;;;;;4.30;3.90;;;;;;;15.91;63.23;96542.09;4942899;28;20206;-81
2023/04/23 07:13:14;;;;;;;5.30;4.00;;;;;;;15.99;62.91;96548.47;4930698;28;20281;-81
2023/04/23 07:15:40;;;;;;;4.95;4.22;;;;;;;16.01;62.45;96538.47;4962510;28;20164;-81
2023/04/23 07:18:06;;;;;;;4.47;4.07;;;;;;;16.12;62.39;96552.94;4968057;28;20212;-81
2023/04/23 07:20:31;;;;;;;6.85;3.97;;;;;;;16.15;62.69;96541.84;4951794;28;20180;-82
2023/04/23 07:22:57;;;;;;;4.75;4.10;;;;;;;16.21;62.06;96538.03;4964901;28;20652;-82
2023/04/23 07:25:24;;;;;;;4.97;4.22;;;;;;;16.31;62.18;96554.66;4969093;28;20279;-81
2023/04/23 07:27:49;;;;;;;4.55;3.88;;;;;;;16.34;61.85;96548.81;4951778;28;20192;-82
2023/04/23 07:30:15;;;;;;;4.47;3.85;;;;;;;16.33;61.35;96541.97;4942330;28;20206;-82
2023/04/23 07:32:41;;;;;;;3.90;3.60;;;;;;;16.35;62.86;96545.88;4961719;28;20102;-81
2023/04/23 07:35:10;;;;;;;5.30;3.70;;;;;;;16.28;61.23;96546.28;4951757;28;20617;-81
2023/04/23 07:37:36;;;;;;;4.57;4.05;;;;;;;16.39;61.21;96543.44;4967509;28;20218;-82
2023/04/23 07:40:04;;;;;;;5.82;3.75;;;;;;;16.31;61.56;96541.50;4939932;28;20625;-81
2023/04/23 07:42:29;;;;;;;5.15;3.60;;;;;;;16.30;61.18;96540.75;4952119;28;20637;-81
2023/04/23 07:44:55;;;;;;;4.88;4.25;;;;;;;16.24;60.28;96542.69;4952277;28;20211;-81
2023/04/23 07:47:20;;;;;;;4.50;4.10;;;;;;;16.45;61.21;96547.47;4934920;28;20288;-81
2023/04/23 07:49:46;;;;;;;4.10;3.70;;;;;;;16.58;60.76;96538.78;4952450;28;20210;-80
2023/04/23 07:52:11;;;;;;;4.35;3.50;;;;;;;16.80;61.32;96543.25;4951409;28;20655;-81
2023/04/23 07:54:36;;;;;;;4.88;3.28;;;;;;;17.12;60.65;96538.03;4942250;28;20233;-82
2023/04/23 07:57:02;;;;;;;4.30;3.85;;;;;;;17.29;60.59;96537.34;4967403;28;20259;-81
2023/04/23 07:59:28;;;;;;;3.78;3.38;;;;;;;17.43;59.68;96530.16;4948809;28;20267;-81
2023/04/23 08:01:54;;;;;;;5.80;3.70;;;;;;;17.54;59.02;96543.81;4947855;28;20368;-81
2023/04/23 08:04:19;;;;;;;5.35;3.13;;;;;;;17.55;58.60;96532.22;4951145;28;20775;-81
2023/04/23 08:06:44;;;;;;;4.03;3.35;;;;;;;17.48;58.10;96545.00;4942273;28;20385;-81
2023/04/23 08:09:10;;;;;;;6.32;3.20;;;;;;;17.52;57.95;96544.09;4941701;28;20277;-81
2023/04/23 08:11:36;;;;;;;4.22;3.63;;;;;;;17.63;57.75;96531.44;4951923;28;20298;-80
2023/04/23 08:14:02;;;;;;;3.50;3.20;;;;;;;17.45;58.15;96532.47;4949647;28;20290;-81
2023/04/23 08:16:27;;;;;;;4.97;3.20;;;;;;;17.45;57.34;96524.59;4944300;28;20186;-81
2023/04/23 08:18:53;;;;;;;3.75;3.45;;;;;;;17.14;58.14;96528.03;4934717;28;20127;-80
2023/04/23 08:21:18;;;;;;;4.88;3.60;;;;;;;17.13;57.35;96521.19;4959858;28;20566;-80
2023/04/23 08:23:44;;;;;;;5.40;3.25;;;;;;;17.31;57.32;96522.81;4934340;28;20230;-81
2023/04/23 08:26:09;;;;;;;4.20;3.03;;;;;;;17.40;57.63;96518.38;4966778;28;20210;-82
2023/04/23 08:28:34;;;;;;;3.30;3.00;;;;;;;17.44;57.05;96509.88;4968817;28;20718;-80
2023/04/23 08:31:00;;;;;;;3.00;2.67;;;;;;;17.59;58.13;96498.91;4957526;28;20576;-81
2023/04/23 08:33:26;;;;;;;3.65;3.00;;;;;;;18.03;54.89;96502.44;4927726;28;20117;-81
2023/04/23 08:35:51;;;;;;;3.17;2.97;;;;;;;18.53;54.46;96501.94;4968330;28;20917;-81
2023/04/23 08:38:16;;;;;;;3.40;2.90;;;;;;;18.52;53.91;96497.78;4932659;28;20250;-81
2023/04/23 08:40:44;;;;;;;3.90;2.45;;;;;;;18.85;53.30;96496.50;4937850;28;20226;-80
2023/04/23 08:43:15;;;;;;;3.47;2.63;;;;;;;19.01;53.89;96505.44;4947904;28;20292;-80
2023/04/23 08:45:44;;;;;;;3.33;2.70;;;;;;;19.03;52.69;96497.22;4948767;28;20274;-81
2023/04/23 08:48:10;;;;;;;3.17;2.60;;;;;;;19.14;50.45;96493.16;4965959;28;20311;-81
2023/04/23 08:50:36;;;;;;;3.55;2.97;;;;;;;18.98;51.97;96500.03;4950096;28;20283;-80
2023/04/23 08:53:03;;;;;;;2.55;2.35;;;;;;;18.58;52.93;96497.63;4949503;28;20689;-80
2023/04/23 08:55:29;;;;;;;3.80;2.42;;;;;;;18.72;52.50;96496.34;4927563;28;20202;-81
2023/04/23 08:57:54;;;;;;;3.67;2.63;;;;;;;18.50;53.69;96497.28;4967335;28;20612;-80
2023/04/23 09:00:21;;;;;;;3.17;2.35;;;;;;;18.45;52.87;96505.38;4958196;28;20218;-80
2023/04/23 09:02:47;;;;;;;3.30;3.00;;;;;;;18.34;54.28;96509.41;4959919;28;20329;-80
2023/04/23 09:05:14;;;;;;;2.53;2.33;;;;;;;18.62;53.24;96496.66;4936968;28;20195;-80
2023/04/23 09:07:40;;;;;;;3.35;2.40;;;;;;;18.62;55.22;96503.81;4945449;28;20237;-81
2023/04/23 09:10:06;;;;;;;2.97;2.70;;;;;;;18.72;53.95;96492.94;4948119;28;20185;-80
2023/04/23 09:12:34;;;;;;;3.90;2.63;;;;;;;19.03;52.26;96494.59;4931154;28;20169;-80
2023/04/23 09:15:00;;;;;;;3.78;3.28;;;;;;;19.14;51.70;96493.16;4947482;28;20250;-80
2023/04/23 09:17:28;;;;;;;2.95;2.55;;;;;;;19.33;51.79;96492.78;4933696;28;20289;-80
2023/04/23 09:19:54;;;;;;;3.67;2.50;;;;;;;19.43;51.77;96492.41;4951249;28;20228;-80
2023/04/23 09:22:37;;;;;;;2.72;2.40;;;;;;;19.55;50.09;96485.66;4954525;28;20289;-79
2023/04/23 09:25:04;;;;;;;2.60;2.40;;;;;;;19.52;50.07;96476.53;4950494;28;20187;-80
2023/04/23 09:27:30;;;;;;;3.00;2.67;;;;;;;18.94;50.44;96478.03;4944667;28;20100;-81
2023/04/23 09:29:56;;;;;;;3.20;2.90;;;;;;;19.49;52.07;96479.03;4950212;28;20818;-80
2023/04/23 09:32:30;;;;;;;2.72;2.20;;;;;;;19.38;50.94;96475.97;4930420;28;20211;-80
2023/04/23 09:34:56;;;;;;;2.70;2.40;;;;;;;19.70;50.26;96465.84;4931964;28;20214;-80
2023/04/23 09:37:24;;;;;;;3.58;2.40;;;;;;;20.09;51.29;96463.91;4948227;28;20587;-81
2023/04/23 09:39:52;;;;;;;2.90;2.17;;;;;;;20.10;49.54;96463.59;4960060;28;20323;-80
2023/04/23 09:42:22;;;;;;;2.63;2.42;;;;;;;19.75;48.75;96468.34;4933495;28;20216;-81
2023/04/23 09:44:59;;;;;;;3.08;2.83;;;;;;;20.01;49.99;96461.00;4949833;28;20266;-80
2023/04/23 09:47:24;;;;;;;3.92;1.80;;;;;;;20.19;49.19;96450.28;4962199;28;20293;-80
2023/04/23 09:49:50;;;;;;;3.00;2.22;;;;;;;20.37;48.71;96450.91;4946430;28;20684;-80
2023/04/23 09:52:16;;;;;;;2.47;2.20;;;;;;;20.33;46.81;96450.78;4947157;28;20287;-79
2023/04/23 09:54:45;;;;;;;2.67;2.15;;;;;;;20.48;47.73;96451.28;4955721;28;20281;-81
2023/04/23 09:57:10;;;;;;;2.60;1.98;;;;;;;20.49;46.28;96447.53;4947757;28;20088;-80
2023/04/23 09:59:38;;;;;;;2.00;1.80;;;;;;;20.69;46.54;96443.31;4949987;28;20282;-80
2023/04/23 10:02:05;;;;;;;2.75;2.05;;;;;;;20.75;45.15;96436.69;4933288;28;20719;-79
2023/04/23 10:04:31;;;;;;;2.60;2.38;;;;;;;20.68;46.24;96431.97;4931840;28;20199;-80
2023/04/23 10:06:58;;;;;;;1.92;1.83;;;;;;;20.42;45.95;96434.81;4949262;28;20192;-79
2023/04/23 10:09:25;;;;;;;2.95;2.08;;;;;;;20.20;45.42;96436.75;4965250;28;20517;-80
2023/04/23 10:11:51;;;;;;;2.78;1.80;;;;;;;20.40;45.29;96434.38;4946724;28;20392;-80
2023/04/23 10:14:17;;;;;;;1.98;1.52;;;;;;;20.70;45.55;96421.81;4951204;28;20349;-80
2023/04/23 10:16:45;;;;;;;3.33;1.92;;;;;;;20.86;44.84;96426.47;4947222;28;20637;-80
2023/04/23 10:19:13;;;;;;;1.80;1.70;;;;;;;20.95;43.56;96421.84;4948573;28;20656;-80
2023/04/23 10:21:40;;;;;;;1.67;1.58;;;;;;;20.16;44.40;96424.50;4930442;28;20207;-80
2023/04/23 10:24:08;;;;;;;2.22;1.90;;;;;;;20.40;44.77;96427.22;4959868;28;20301;-80
2023/04/23 10:26:37;;;;;;;2.72;1.20;;;;;;;20.62;44.34;96412.09;4950782;28;20132;-81
2023/04/23 10:29:04;;;;;;;2.30;1.73;;;;;;;20.14;45.41;96405.56;4946765;28;20716;-79
2023/04/23 10:31:31;;;;;;;1.98;1.73;;;;;;;20.46;46.07;96401.34;4929530;28;20152;-80
2023/04/23 10:33:57;;;;;;;1.70;1.60;;;;;;;20.54;45.64;96410.28;4947460;28;20172;-80
2023/04/23 10:36:24;;;;;;;2.25;2.05;;;;;;;20.55;44.71;96401.25;4957370;28;20234;-80
2023/04/23 10:38:50;;;;;;;1.63;1.48;;;;;;;20.64;44.90;96398.56;4947714;28;20181;-80
2023/04/23 10:41:17;;;;;;;2.22;1.77;;;;;;;20.21;43.50;96397.88;4965213;28;20230;-79
2023/04/23 10:43:42;;;;;;;2.47;1.60;;;;;;;20.44;46.38;96392.19;4962542;28;20199;-81
2023/04/23 10:46:27;;;;;;;1.55;1.45;;;;;;;20.47;43.91;96391.53;4948842;28;20150;-82
2023/04/23 10:49:13;;;;;;;2.88;1.70;;;;;;;20.92;44.82;96386.25;4952748;28;20623;-80
2023/04/23 10:51:41;;;;;;;2.75;1.70;;;;;;;20.86;44.87;96386.78;4951549;28;20194;-79
2023/04/23 10:54:09;;;;;;;1.60;1.50;;;;;;;20.62;44.62;96380.38;4930634;28;20233;-79
2023/04/23 10:56:37;;;;;;;1.50;1.30;;;;;;;20.44;45.47;96365.75;4969602;28;20237;-81
2023/04/23 10:59:05;;;;;;;1.65;1.50;;;;;;;20.52;45.04;96364.91;4953283;28;20233;-80
2023/04/23 11:01:30;;;;;;;2.15;1.60;;;;;;;20.21;44.29;96374.09;4953098;28;20191;-80
2023/04/23 11:03:56;;;;;;;1.88;1.48;;;;;;;20.31;44.47;96365.72;4951246;28;20942;-80
2023/04/23 11:06:47;;;;;;;1.83;1.73;;;;;;;20.51;45.10;96371.28;4952710;28;20280;-81
2023/04/23 11:09:32;;;;;;;2.63;1.60;;;;;;;21.19;44.43;96359.41;4951679;28;20434;-81
2023/04/23 11:11:58;;;;;;;2.00;1.80;;;;;;;21.35;44.26;96362.13;4968959;28;20171;-80
2023/04/23 11:14:40;;;;;;;2.28;1.67;;;;;;;21.56;41.86;96354.84;4935338;28;20255;-80
2023/04/23 11:17:06;;;;;;;2.60;2.00;;;;;;;21.44;41.91;96355.63;4950505;28;20408;-81
2023/04/23 11:19:35;;;;;;;1.77;1.65;;;;;;;21.37;41.66;96342.19;4929630;28;20719;-80
2023/04/23 11:22:07;;;;;;;1.80;1.70;;;;;;;21.69;43.58;96348.41;4952045;28;20183;-81
2023/04/23 11:24:36;;;;;;;2.20;1.98;;;;;;;21.94;44.26;96342.22;4956441;28;20195;-81
2023/04/23 11:27:04;;;;;;;1.60;1.50;;;;;;;22.21;43.25;96330.81;4939652;28;20187;-80
2023/04/23 11:29:30;;;;;;;2.20;1.92;;;;;;;22.65;42.07;96335.28;4949296;28;20191;-80